Date,TemperatureHighF,TemperatureAvgF,TemperatureLowF,DewpointHighF,DewpointAvgF,DewpointLowF,HumidityHigh,HumidityAvg,HumidityLow,PressureMaxIn,PressureMinIn,WindSpeedMaxMPH,WindSpeedAvgMPH,GustSpeedMaxMPH,PrecipitationSumIn
2019-1-1,55.5,51.1,46.7,40.4,33.8,31.2,77,51,41,29.98,29.81,24,9,37,0.05
2019-1-2,54.6,48.2,41.8,42.0,35.1,32.4,77,60,45,29.96,29.78,6,2,10,0.02
2019-1-3,50.9,47.2,43.5,44.1,40.5,36.9,92,81,59,29.90,29.62,10,2,16,0.45
2019-1-4,46.1,42.3,38.6,39.6,36.4,33.2,89,81,69,30.05,29.90,11,2,20,0.24
2019-1-5,45.5,40.8,36.1,36.1,33.1,27.1,88,75,58,30.03,29.89,12,2,13,0.03
2019-1-6,50.0,42.6,35.2,32.4,28.0,23.2,75,59,37,29.95,29.86,8,1,9,0.00
2019-1-7,49.3,42.7,36.1,30.7,27.5,21.5,71,60,36,30.12,29.95,14,2,16,0.00
2019-1-8,47.1,40.5,34.0,27.9,23.0,14.2,67,50,29,30.17,30.07,8,2,10,0.00
2019-1-9,51.8,46.2,40.5,47.7,37.5,28.2,91,73,58,30.07,29.67,13,4,26,0.93
2019-1-10,57.8,53.7,49.5,49.6,47.1,43.6,87,79,65,29.85,29.68,20,6,30,0.70
2019-1-11,52.7,49.3,45.9,47.4,44.8,42.5,90,83,72,29.97,29.82,10,3,15,0.69
2019-1-12,51.8,48.2,44.6,44.9,41.1,35.2,92,80,54,29.83,29.66,15,3,22,0.34
2019-1-13,56.2,48.3,40.6,43.0,39.6,35.9,84,73,53,29.86,29.76,8,2,14,0.01
2019-1-14,53.4,50.2,46.9,43.0,40.9,38.2,82,73,61,29.76,29.47,8,2,12,0.01
2019-1-15,53.2,47.5,42.0,43.5,25.0,4.7,86,44,17,30.03,29.47,14,4,23,0.01
2019-1-16,52.9,44.0,35.2,29.1,21.0,9.1,55,39,26,30.21,30.03,8,2,14,0.00
2019-1-17,57.8,50.6,43.4,42.7,36.6,25.5,70,60,45,30.22,30.15,7,2,12,0.00
2019-1-18,59.3,54.3,49.4,46.4,43.1,40.2,75,67,53,30.16,30.08,7,1,12,0.00
2019-1-19,58.0,54.0,49.9,49.0,44.8,40.5,91,74,62,30.09,29.99,6,1,12,0.33
2019-1-20,59.6,53.8,48.1,50.9,46.5,42.5,90,79,66,30.04,29.93,8,2,12,0.01
2019-1-21,59.8,53.1,46.4,46.3,43.9,41.5,86,73,55,30.01,29.95,5,1,8,0.00
2019-1-22,62.4,55.7,49.1,51.6,46.0,41.6,85,72,53,30.01,29.75,10,2,20,0.18
2019-1-23,65.1,57.2,49.2,48.7,45.4,38.6,88,70,38,29.79,29.41,18,4,30,0.56
2019-1-24,58.1,53.2,48.2,48.5,44.2,40.3,86,76,59,29.48,29.40,6,2,14,0.11
2019-1-25,53.8,50.8,47.9,46.9,44.3,41.5,90,80,68,29.48,29.29,12,2,17,0.67
2019-1-26,56.5,51.8,47.1,46.9,44.1,41.6,89,77,62,29.68,29.30,10,2,14,0.03
2019-1-27,58.4,52.2,46.1,45.8,42.6,40.4,82,71,56,29.84,29.68,8,2,10,0.00
2019-1-28,59.5,55.7,52.0,49.7,45.1,40.9,89,70,55,29.84,29.69,13,3,21,0.21
2019-1-29,59.3,53.5,47.8,51.0,47.5,44.6,91,84,66,29.73,29.52,15,3,26,1.77
2019-1-30,56.5,52.3,48.2,48.7,46.2,43.9,90,83,70,29.71,29.50,10,2,17,0.51
2019-1-31,57.6,52.7,47.7,46.5,43.6,39.5,89,75,53,29.98,29.63,15,4,23,0.44
2019-2-1,62.3,56.3,50.3,48.9,46.5,43.4,84,71,54,30.09,29.98,10,2,15,0.00
2019-2-2,64.1,56.2,48.5,51.7,47.2,43.0,83,73,58,30.06,29.93,10,2,14,0.00
2019-2-3,69.2,60.8,52.3,51.1,45.2,38.5,78,59,41,29.97,29.89,13,4,17,0.00
2019-2-4,65.8,60.2,54.6,50.0,44.3,39.3,67,56,45,29.98,29.86,15,4,25,0.00
2019-2-5,64.2,59.8,55.6,46.7,44.9,42.3,71,54,48,29.89,29.62,27,7,48,0.12
2019-2-6,61.4,56.2,51.2,47.3,42.4,38.1,81,62,47,29.89,29.62,20,5,40,0.80
2019-2-7,61.3,55.0,48.8,40.1,36.8,32.4,62,49,35,30.01,29.88,16,4,26,0.00
2019-2-8,57.4,50.8,44.4,41.5,37.1,33.3,72,60,44,30.09,30.00,6,1,10,0.00
2019-2-9,58.8,52.0,45.2,43.3,38.8,33.5,76,62,40,30.18,30.07,8,2,12,0.00
2019-2-10,60.4,53.1,45.7,46.8,42.7,39.6,82,68,50,30.24,30.17,8,2,12,0.00
2019-2-11,61.0,56.2,51.5,51.5,46.6,41.7,78,68,58,30.17,29.84,14,5,25,0.00
2019-2-12,58.9,53.2,47.5,52.5,43.5,38.7,88,71,55,29.99,29.84,11,3,20,0.25
2019-2-13,53.4,50.3,47.3,41.1,30.7,26.4,75,49,39,30.07,29.94,17,6,37,0.01
2019-2-14,56.7,52.3,48.0,31.1,27.0,20.0,50,39,27,30.19,29.98,17,6,43,0.00
2019-2-15,55.3,50.0,44.7,30.4,28.0,23.4,55,43,29,30.19,30.10,16,5,24,0.00
2019-2-16,57.2,51.5,45.7,33.6,30.3,26.5,60,46,36,30.29,30.17,17,6,27,0.00
2019-2-17,60.1,51.1,42.1,36.8,33.0,28.3,66,52,33,30.31,30.23,12,2,18,0.00
2019-2-18,60.4,52.1,43.7,45.5,37.5,31.8,75,59,41,30.28,30.20,5,1,7,0.00
2019-2-19,60.4,53.5,46.5,49.2,44.7,38.9,82,73,62,30.23,30.17,6,1,9,0.00
2019-2-20,60.5,55.7,50.8,47.4,44.6,42.5,80,68,54,30.20,30.13,9,3,13,0.00
2019-2-21,63.1,55.0,47.0,47.7,44.2,39.5,84,70,54,30.22,30.17,6,1,9,0.00
2019-2-22,61.3,54.0,46.8,49.7,45.0,39.6,83,71,57,30.20,29.93,7,2,12,0.01
2019-2-23,54.0,49.3,44.8,48.3,37.9,27.3,89,66,42,30.05,29.83,25,5,38,0.12
2019-2-24,54.2,48.6,43.0,35.1,30.9,26.9,68,52,42,30.18,30.02,19,5,27,0.05
2019-2-25,54.6,47.8,41.1,34.2,32.4,30.4,72,56,43,30.16,30.04,17,4,25,0.00
2019-2-26,62.0,53.2,44.5,47.2,38.1,32.9,74,57,41,30.10,29.92,10,3,13,0.00
2019-2-27,58.3,52.8,47.2,46.7,32.7,23.6,72,45,31,30.11,29.86,15,5,25,0.00
2019-2-28,58.9,50.3,41.7,41.6,34.3,28.3,67,54,33,30.17,30.06,6,2,14,0.00
2019-3-1,60.8,54.7,48.5,49.1,41.5,37.5,78,66,51,30.06,29.89,5,2,12,0.00
2019-3-2,62.1,56.4,50.8,50.0,46.4,43.7,82,72,59,29.89,29.72,7,1,10,0.00
2019-3-3,65.4,57.1,48.8,47.7,42.1,35.1,86,60,34,30.03,29.88,9,2,12,0.00
2019-3-4,62.0,55.0,48.0,48.4,42.4,38.1,71,62,49,30.08,30.00,8,2,10,0.00
2019-3-5,63.7,57.2,50.8,53.2,46.8,39.8,80,69,59,30.11,30.01,8,2,12,0.00
2019-3-6,64.1,57.2,50.4,54.4,50.0,44.2,89,76,61,30.23,30.10,8,2,12,0.00
2019-3-7,66.3,59.2,52.0,54.2,51.2,47.0,89,79,65,30.27,30.21,6,1,8,0.00
2019-3-8,65.9,58.7,51.6,52.5,47.7,41.9,87,70,48,30.28,30.21,6,1,9,0.00
2019-3-9,66.6,58.9,51.3,55.4,47.3,38.8,88,68,48,30.32,30.25,6,1,10,0.00
2019-3-10,66.0,59.0,51.9,55.7,51.1,44.6,88,77,65,30.28,30.16,7,1,12,0.00
2019-3-11,63.1,57.7,52.3,54.3,48.4,41.8,83,69,60,30.16,29.89,10,2,20,0.00
2019-3-12,64.5,54.0,43.6,54.0,48.9,40.6,90,78,51,29.89,29.60,14,4,20,0.90
2019-3-13,61.7,52.7,43.6,41.5,38.7,34.1,88,62,40,29.98,29.70,14,5,22,0.07
2019-3-14,60.1,53.0,45.9,47.5,42.8,38.2,90,73,47,29.98,29.75,10,2,17,0.44
2019-3-15,60.5,54.6,48.8,47.3,44.8,38.2,90,75,48,29.98,29.74,7,1,13,0.00
2019-3-16,64.4,55.6,46.8,47.5,42.2,35.8,79,62,40,30.16,29.98,8,2,12,0.00
2019-3-17,64.1,56.7,49.3,53.6,48.3,39.6,81,72,57,30.16,30.09,7,2,12,0.00
2019-3-18,62.2,58.0,53.8,52.3,47.8,44.3,83,68,57,30.09,30.03,8,3,12,0.00
2019-3-19,66.0,58.0,50.0,51.4,48.0,44.0,85,70,48,30.07,29.99,7,1,10,0.00
2019-3-20,68.1,60.2,52.3,53.1,50.1,43.2,88,71,44,30.13,30.03,14,2,21,0.00
2019-3-21,72.7,66.9,61.3,46.1,37.5,25.7,56,37,21,30.21,30.10,20,5,31,0.00
2019-3-22,70.9,63.9,56.9,38.1,35.1,28.3,46,34,27,30.20,30.10,18,4,29,0.00
2019-3-23,72.1,63.5,55.0,42.5,34.5,26.8,55,35,24,30.13,30.00,13,3,21,0.00
2019-3-24,69.1,61.3,53.6,46.0,42.1,37.4,62,50,36,30.09,30.03,11,3,15,0.00
2019-3-25,68.1,59.1,50.1,53.7,45.0,39.0,82,61,39,30.05,29.86,6,2,9,0.00
2019-3-26,65.4,59.2,53.0,55.6,50.9,44.9,84,74,56,29.99,29.83,8,2,13,0.00
2019-3-27,68.2,60.3,52.6,52.9,50.5,47.3,90,77,50,30.11,29.98,14,2,20,0.78
2019-3-28,56.5,54.4,52.3,51.1,41.6,31.8,91,64,42,30.08,29.93,25,6,44,0.22
2019-3-29,58.3,55.8,53.2,33.9,29.2,23.7,46,36,31,30.09,29.94,24,9,39,0.00
2019-3-30,63.3,57.5,51.7,38.3,31.1,26.5,52,37,28,30.09,29.98,19,5,26,0.00
2019-3-31,69.3,59.1,49.1,43.1,37.5,32.8,65,46,28,29.99,29.88,13,3,17,0.00
2019-4-1,73.5,61.6,49.8,46.7,41.6,36.5,67,50,27,29.97,29.84,11,2,15,0.00
2019-4-2,71.8,61.7,51.6,49.5,40.4,34.2,74,49,26,30.00,29.93,18,4,27,0.00
2019-4-3,71.9,63.0,54.2,45.9,40.2,35.1,59,45,27,30.00,29.91,9,2,12,0.00
2019-4-4,68.2,61.4,54.7,48.8,45.9,41.7,72,59,41,29.99,29.91,10,2,14,0.00
2019-4-5,68.1,61.8,55.5,53.4,49.0,44.0,86,67,45,29.94,29.68,13,3,20,0.11
2019-4-6,68.4,62.4,56.4,53.4,49.7,47.1,81,65,50,29.75,29.53,23,5,31,0.03
2019-4-7,65.8,61.1,56.5,57.5,53.3,48.4,93,80,67,29.81,29.73,7,1,12,0.44
2019-4-8,61.9,58.3,54.8,56.4,52.6,46.3,94,84,58,29.78,29.62,11,2,16,1.41
2019-4-9,58.9,55.8,52.7,51.8,50.0,47.8,90,82,72,29.74,29.66,10,3,20,0.47
2019-4-10,65.1,59.9,54.7,55.6,52.5,48.5,92,82,59,29.90,29.73,10,2,18,0.24
2019-4-11,65.8,59.6,53.6,57.3,51.6,46.8,87,76,59,29.94,29.85,9,2,13,0.13
2019-4-12,64.5,60.5,56.4,55.2,50.7,44.1,87,73,60,29.91,29.79,13,4,18,0.13
2019-4-13,66.1,58.6,51.1,55.3,48.3,43.4,81,67,46,29.91,29.83,11,2,15,0.02
2019-4-14,65.0,59.4,53.8,53.0,50.2,47.6,90,77,59,29.91,29.81,10,2,15,0.31
2019-4-15,62.4,57.2,52.0,52.6,49.9,44.6,91,83,64,29.92,29.84,13,2,21,0.24
2019-4-16,67.0,58.8,50.5,51.5,46.9,43.1,84,66,45,30.07,29.91,13,3,20,0.01
2019-4-17,66.9,59.3,51.8,52.8,48.8,45.5,83,71,54,30.06,30.00,10,2,15,0.09
2019-4-18,69.9,60.2,50.6,49.7,46.0,36.0,86,64,30,30.20,30.05,15,3,22,0.00
2019-4-19,67.2,58.8,50.4,48.6,44.7,41.5,78,59,41,30.25,30.20,12,2,20,0.00
2019-4-20,62.9,58.0,53.1,52.1,48.0,45.7,84,74,63,30.24,30.17,6,1,9,0.00
2019-4-21,65.5,62.1,58.8,53.3,50.7,44.8,75,67,50,30.23,30.15,8,2,12,0.00
2019-4-22,70.1,62.9,55.8,53.3,49.3,43.7,80,65,40,30.17,29.98,10,2,15,0.00
2019-4-23,71.0,64.8,58.5,51.0,47.5,41.0,71,57,37,30.12,29.95,16,4,23,0.01